Reboly, Russia
Current Conditions -  °F | °C
As of 7:20 AM on Monday 26 Jan 2015 (Local Time) from EFJO Reporting Station
Overcast Overcast  
Wind Chill: 25°   Ceiling: 1400
Heat Index: 25°   Visibility: 6mi
Dew Point: 25°   Wind: 3mph
Humidity: 100%   Direction: 190°S
Pressure: 30"   Gusts: NA
Location:  63.83°N, 30.8°E
Report Text: EFJO 260420Z 19003KT 9999 OVC014 M04/M04 Q1016
Loading
Personal Weather Stations






























Interactive Weather Map New forecast layout! Learn more

10-Day Weather Forecast

Advertisements
Track Severe Weather on mobile